sensor_id;sensor_type;location;lat;lon;timestamp;temperature;humidity
2993;DHT22;1506;48.932;9.478;2023-09-30T00:01:08;17.30;41.70
2993;DHT22;1506;48.932;9.478;2023-09-30T00:03:38;17.20;54.30
2993;DHT22;1506;48.932;9.478;2023-09-30T00:06:05;17.10;72.00
2993;DHT22;1506;48.932;9.478;2023-09-30T00:08:32;17.00;95.80
2993;DHT22;1506;48.932;9.478;2023-09-30T00:10:59;16.90;99.90
2993;DHT22;1506;48.932;9.478;2023-09-30T00:13:26;16.90;99.90
2993;DHT22;1506;48.932;9.478;2023-09-30T00:15:53;16.90;99.90
2993;DHT22;1506;48.932;9.478;2023-09-30T00:18:20;16.80;99.90
2993;DHT22;1506;48.932;9.478;2023-09-30T00:20:47;16.80;99.90
2993;DHT22;1506;48.932;9.478;2023-09-30T00:23:14;16.70;99.90
2993;DHT22;1506;48.932;9.478;2023-09-30T00:25:41;16.70;99.90
2993;DHT22;1506;48.932;9.478;2023-09-30T00:28:08;16.60;99.90
2993;DHT22;1506;48.932;9.478;2023-09-30T00:30:35;16.60;99.90
2993;DHT22;1506;48.932;9.478;2023-09-30T00:33:02;16.50;99.90
2993;DHT22;1506;48.932;9.478;2023-09-30T00:35:31;16.50;99.90
2993;DHT22;1506;48.932;9.478;2023-09-30T00:37:59;16.40;99.90
2993;DHT22;1506;48.932;9.478;2023-09-30T00:40:26;16.30;99.90
2993;DHT22;1506;48.932;9.478;2023-09-30T00:42:53;16.30;99.90
2993;DHT22;1506;48.932;9.478;2023-09-30T00:45:20;16.30;99.90
2993;DHT22;1506;48.932;9.478;2023-09-30T00:47:47;16.30;99.90
2993;DHT22;1506;48.932;9.478;2023-09-30T00:50:14;16.20;99.90
2993;DHT22;1506;48.932;9.478;2023-09-30T00:52:42;16.20;99.90
2993;DHT22;1506;48.932;9.478;2023-09-30T00:55:09;16.20;99.90
2993;DHT22;1506;48.932;9.478;2023-09-30T00:57:37;16.20;99.90
2993;DHT22;1506;48.932;9.478;2023-09-30T01:00:05;16.10;99.90
2993;DHT22;1506;48.932;9.478;2023-09-30T01:02:33;16.20;99.90
2993;DHT22;1506;48.932;9.478;2023-09-30T01:05:01;16.20;99.90
2993;DHT22;1506;48.932;9.478;2023-09-30T01:07:29;16.20;99.90
2993;DHT22;1506;48.932;9.478;2023-09-30T01:09:56;16.20;99.90
2993;DHT22;1506;48.932;9.478;2023-09-30T01:12:23;16.20;99.90
2993;DHT22;1506;48.932;9.478;2023-09-30T01:14:56;16.20;99.90
2993;DHT22;1506;48.932;9.478;2023-09-30T01:17:25;16.10;99.90
2993;DHT22;1506;48.932;9.478;2023-09-30T01:19:52;16.00;99.90
2993;DHT22;1506;48.932;9.478;2023-09-30T01:22:19;16.00;99.90
2993;DHT22;1506;48.932;9.478;2023-09-30T01:24:46;16.00;99.90
2993;DHT22;1506;48.932;9.478;2023-09-30T01:27:14;16.00;99.90
2993;DHT22;1506;48.932;9.478;2023-09-30T01:29:44;15.90;99.90
2993;DHT22;1506;48.932;9.478;2023-09-30T01:32:13;15.80;99.90
2993;DHT22;1506;48.932;9.478;2023-09-30T01:34:40;15.80;99.90
2993;DHT22;1506;48.932;9.478;2023-09-30T01:37:09;15.70;99.90
2993;DHT22;1506;48.932;9.478;2023-09-30T01:39:36;15.70;99.90
2993;DHT22;1506;48.932;9.478;2023-09-30T01:42:03;15.60;99.90
2993;DHT22;1506;48.932;9.478;2023-09-30T01:44:32;15.70;99.90
2993;DHT22;1506;48.932;9.478;2023-09-30T01:46:59;15.60;99.90
2993;DHT22;1506;48.932;9.478;2023-09-30T01:49:26;15.50;99.90
2993;DHT22;1506;48.932;9.478;2023-09-30T01:51:54;15.50;99.90
2993;DHT22;1506;48.932;9.478;2023-09-30T01:54:21;15.50;99.90
2993;DHT22;1506;48.932;9.478;2023-09-30T01:56:49;15.40;99.90
2993;DHT22;1506;48.932;9.478;2023-09-30T01:59:16;15.40;99.90
2993;DHT22;1506;48.932;9.478;2023-09-30T02:01:44;15.40;99.90
2993;DHT22;1506;48.932;9.478;2023-09-30T02:04:12;15.40;99.90
2993;DHT22;1506;48.932;9.478;2023-09-30T02:06:42;15.30;99.90
2993;DHT22;1506;48.932;9.478;2023-09-30T02:09:09;15.30;99.90
2993;DHT22;1506;48.932;9.478;2023-09-30T02:11:36;15.30;99.90
2993;DHT22;1506;48.932;9.478;2023-09-30T02:14:04;15.30;99.90
2993;DHT22;1506;48.932;9.478;2023-09-30T02:16:34;15.30;99.90
2993;DHT22;1506;48.932;9.478;2023-09-30T02:19:02;15.20;99.90
2993;DHT22;1506;48.932;9.478;2023-09-30T02:21:29;15.20;99.90
2993;DHT22;1506;48.932;9.478;2023-09-30T02:23:56;15.10;99.90
2993;DHT22;1506;48.932;9.478;2023-09-30T02:26:23;15.00;99.90
2993;DHT22;1506;48.932;9.478;2023-09-30T02:28:52;15.10;99.90
2993;DHT22;1506;48.932;9.478;2023-09-30T02:31:20;15.00;99.90
2993;DHT22;1506;48.932;9.478;2023-09-30T02:33:47;15.00;99.90
2993;DHT22;1506;48.932;9.478;2023-09-30T02:36:14;15.00;99.90
2993;DHT22;1506;48.932;9.478;2023-09-30T02:38:42;15.00;99.90
2993;DHT22;1506;48.932;9.478;2023-09-30T02:41:10;15.10;99.90
2993;DHT22;1506;48.932;9.478;2023-09-30T02:43:37;15.10;99.90
2993;DHT22;1506;48.932;9.478;2023-09-30T02:46:05;15.00;99.90
2993;DHT22;1506;48.932;9.478;2023-09-30T02:48:32;14.90;99.90
2993;DHT22;1506;48.932;9.478;2023-09-30T02:50:59;14.80;99.90
2993;DHT22;1506;48.932;9.478;2023-09-30T02:53:27;14.80;99.90
2993;DHT22;1506;48.932;9.478;2023-09-30T02:55:54;14.80;99.90
2993;DHT22;1506;48.932;9.478;2023-09-30T02:58:24;14.70;99.90
2993;DHT22;1506;48.932;9.478;2023-09-30T03:00:51;14.60;99.90
2993;DHT22;1506;48.932;9.478;2023-09-30T03:03:19;14.30;99.90
2993;DHT22;1506;48.932;9.478;2023-09-30T03:05:46;14.20;99.90
2993;DHT22;1506;48.932;9.478;2023-09-30T03:08:13;14.10;99.90
2993;DHT22;1506;48.932;9.478;2023-09-30T03:10:40;14.00;99.90
2993;DHT22;1506;48.932;9.478;2023-09-30T03:13:07;13.90;99.90
2993;DHT22;1506;48.932;9.478;2023-09-30T03:15:37;14.00;99.90
2993;DHT22;1506;48.932;9.478;2023-09-30T03:18:05;14.00;99.90
2993;DHT22;1506;48.932;9.478;2023-09-30T03:20:32;13.90;99.90
2993;DHT22;1506;48.932;9.478;2023-09-30T03:22:59;13.90;99.90
2993;DHT22;1506;48.932;9.478;2023-09-30T03:25:26;13.90;99.90
2993;DHT22;1506;48.932;9.478;2023-09-30T03:27:53;13.90;99.90
2993;DHT22;1506;48.932;9.478;2023-09-30T03:30:20;13.90;99.90
2993;DHT22;1506;48.932;9.478;2023-09-30T03:32:48;13.90;99.90
2993;DHT22;1506;48.932;9.478;2023-09-30T03:35:15;13.90;99.90
2993;DHT22;1506;48.932;9.478;2023-09-30T03:37:44;13.90;99.90
2993;DHT22;1506;48.932;9.478;2023-09-30T03:40:12;14.00;99.90
2993;DHT22;1506;48.932;9.478;2023-09-30T03:42:41;14.10;99.90
2993;DHT22;1506;48.932;9.478;2023-09-30T03:45:11;14.10;99.90
2993;DHT22;1506;48.932;9.478;2023-09-30T03:47:40;14.10;99.90
2993;DHT22;1506;48.932;9.478;2023-09-30T03:50:08;14.10;99.90
2993;DHT22;1506;48.932;9.478;2023-09-30T03:52:41;14.10;99.90
2993;DHT22;1506;48.932;9.478;2023-09-30T03:55:13;14.10;99.90
2993;DHT22;1506;48.932;9.478;2023-09-30T03:57:43;14.00;99.90
2993;DHT22;1506;48.932;9.478;2023-09-30T04:00:15;13.90;99.90
2993;DHT22;1506;48.932;9.478;2023-09-30T04:02:48;13.80;99.90
2993;DHT22;1506;48.932;9.478;2023-09-30T04:05:17;13.70;99.90
2993;DHT22;1506;48.932;9.478;2023-09-30T04:07:44;13.70;99.90
2993;DHT22;1506;48.932;9.478;2023-09-30T04:10:11;13.60;99.90
2993;DHT22;1506;48.932;9.478;2023-09-30T04:12:38;13.50;99.90
2993;DHT22;1506;48.932;9.478;2023-09-30T04:15:05;13.30;99.90
2993;DHT22;1506;48.932;9.478;2023-09-30T04:17:32;13.20;99.90
2993;DHT22;1506;48.932;9.478;2023-09-30T04:19:59;13.20;99.90
2993;DHT22;1506;48.932;9.478;2023-09-30T04:22:27;13.20;99.90
2993;DHT22;1506;48.932;9.478;2023-09-30T04:24:55;13.20;99.90
2993;DHT22;1506;48.932;9.478;2023-09-30T04:27:21;13.20;99.90
2993;DHT22;1506;48.932;9.478;2023-09-30T04:29:49;13.20;99.90
2993;DHT22;1506;48.932;9.478;2023-09-30T04:32:16;13.30;99.90
2993;DHT22;1506;48.932;9.478;2023-09-30T04:34:43;13.20;99.90
2993;DHT22;1506;48.932;9.478;2023-09-30T04:37:13;13.20;99.90
2993;DHT22;1506;48.932;9.478;2023-09-30T04:39:40;13.20;99.90
2993;DHT22;1506;48.932;9.478;2023-09-30T04:42:08;13.10;99.90
2993;DHT22;1506;48.932;9.478;2023-09-30T04:44:38;13.10;99.90
2993;DHT22;1506;48.932;9.478;2023-09-30T04:47:05;13.10;99.90
2993;DHT22;1506;48.932;9.478;2023-09-30T04:49:32;13.10;99.90
2993;DHT22;1506;48.932;9.478;2023-09-30T04:51:59;13.00;99.90
2993;DHT22;1506;48.932;9.478;2023-09-30T04:54:26;13.00;99.90
2993;DHT22;1506;48.932;9.478;2023-09-30T04:56:56;13.00;99.90
2993;DHT22;1506;48.932;9.478;2023-09-30T04:59:23;13.00;99.90
2993;DHT22;1506;48.932;9.478;2023-09-30T05:01:52;13.00;99.90
2993;DHT22;1506;48.932;9.478;2023-09-30T05:04:20;13.00;99.90
2993;DHT22;1506;48.932;9.478;2023-09-30T05:06:47;13.00;99.90
2993;DHT22;1506;48.932;9.478;2023-09-30T05:09:14;12.80;99.90
2993;DHT22;1506;48.932;9.478;2023-09-30T05:11:41;12.70;99.90
2993;DHT22;1506;48.932;9.478;2023-09-30T05:14:08;12.70;99.90
2993;DHT22;1506;48.932;9.478;2023-09-30T05:16:35;12.70;99.90
2993;DHT22;1506;48.932;9.478;2023-09-30T05:19:02;12.70;99.90
2993;DHT22;1506;48.932;9.478;2023-09-30T05:21:30;12.70;99.90
2993;DHT22;1506;48.932;9.478;2023-09-30T05:23:57;12.70;99.90
2993;DHT22;1506;48.932;9.478;2023-09-30T05:26:25;12.80;99.90
2993;DHT22;1506;48.932;9.478;2023-09-30T05:28:52;12.80;99.90
2993;DHT22;1506;48.932;9.478;2023-09-30T05:31:19;12.80;99.90
2993;DHT22;1506;48.932;9.478;2023-09-30T05:33:46;12.80;99.90
2993;DHT22;1506;48.932;9.478;2023-09-30T05:36:13;12.80;99.90
2993;DHT22;1506;48.932;9.478;2023-09-30T05:38:40;12.70;99.90
2993;DHT22;1506;48.932;9.478;2023-09-30T05:41:08;12.70;99.90
2993;DHT22;1506;48.932;9.478;2023-09-30T05:43:35;12.70;99.90
2993;DHT22;1506;48.932;9.478;2023-09-30T05:46:02;12.70;99.90
2993;DHT22;1506;48.932;9.478;2023-09-30T05:48:29;12.70;99.90
2993;DHT22;1506;48.932;9.478;2023-09-30T05:50:57;12.60;99.90
2993;DHT22;1506;48.932;9.478;2023-09-30T05:53:24;12.60;99.90
2993;DHT22;1506;48.932;9.478;2023-09-30T05:55:51;12.70;99.90
2993;DHT22;1506;48.932;9.478;2023-09-30T05:58:18;12.70;99.90
2993;DHT22;1506;48.932;9.478;2023-09-30T06:00:45;12.80;99.90
2993;DHT22;1506;48.932;9.478;2023-09-30T06:03:12;12.90;99.90
2993;DHT22;1506;48.932;9.478;2023-09-30T06:05:40;13.10;99.90
2993;DHT22;1506;48.932;9.478;2023-09-30T06:08:08;13.20;99.90
2993;DHT22;1506;48.932;9.478;2023-09-30T06:10:37;13.40;99.90
2993;DHT22;1506;48.932;9.478;2023-09-30T06:13:10;13.50;99.90
2993;DHT22;1506;48.932;9.478;2023-09-30T06:15:38;13.60;99.90
2993;DHT22;1506;48.932;9.478;2023-09-30T06:18:07;13.70;99.90
2993;DHT22;1506;48.932;9.478;2023-09-30T06:20:34;13.90;99.90
2993;DHT22;1506;48.932;9.478;2023-09-30T06:23:01;14.00;99.90
2993;DHT22;1506;48.932;9.478;2023-09-30T06:25:28;14.20;99.90
2993;DHT22;1506;48.932;9.478;2023-09-30T06:27:57;14.30;99.90
2993;DHT22;1506;48.932;9.478;2023-09-30T06:30:24;14.40;99.90
2993;DHT22;1506;48.932;9.478;2023-09-30T06:32:57;14.50;99.90
2993;DHT22;1506;48.932;9.478;2023-09-30T06:35:27;14.60;99.90
2993;DHT22;1506;48.932;9.478;2023-09-30T06:37:57;14.70;99.90
2993;DHT22;1506;48.932;9.478;2023-09-30T06:40:24;14.70;99.90
2993;DHT22;1506;48.932;9.478;2023-09-30T06:42:51;14.80;99.90
2993;DHT22;1506;48.932;9.478;2023-09-30T06:45:19;14.80;99.90
2993;DHT22;1506;48.932;9.478;2023-09-30T06:47:46;14.80;99.90
2993;DHT22;1506;48.932;9.478;2023-09-30T06:50:14;15.00;99.90
2993;DHT22;1506;48.932;9.478;2023-09-30T06:52:44;15.20;99.90
2993;DHT22;1506;48.932;9.478;2023-09-30T06:55:16;15.50;99.90
2993;DHT22;1506;48.932;9.478;2023-09-30T06:57:43;15.60;99.90
2993;DHT22;1506;48.932;9.478;2023-09-30T07:00:11;15.80;99.90
2993;DHT22;1506;48.932;9.478;2023-09-30T07:02:41;16.00;99.90
2993;DHT22;1506;48.932;9.478;2023-09-30T07:05:10;16.10;99.90
2993;DHT22;1506;48.932;9.478;2023-09-30T07:07:38;16.20;99.90
2993;DHT22;1506;48.932;9.478;2023-09-30T07:10:12;16.10;96.10
2993;DHT22;1506;48.932;9.478;2023-09-30T07:12:39;16.10;99.90
2993;DHT22;1506;48.932;9.478;2023-09-30T07:15:07;16.10;96.10
2993;DHT22;1506;48.932;9.478;2023-09-30T07:17:35;15.80;99.90
2993;DHT22;1506;48.932;9.478;2023-09-30T07:20:03;15.90;99.90
2993;DHT22;1506;48.932;9.478;2023-09-30T07:22:32;15.90;99.90
2993;DHT22;1506;48.932;9.478;2023-09-30T07:25:12;16.10;99.90
2993;DHT22;1506;48.932;9.478;2023-09-30T07:27:42;16.40;99.90
2993;DHT22;1506;48.932;9.478;2023-09-30T07:30:10;16.80;99.90
2993;DHT22;1506;48.932;9.478;2023-09-30T07:32:38;17.00;45.00
2993;DHT22;1506;48.932;9.478;2023-09-30T07:35:06;16.80;1.00
2993;DHT22;1506;48.932;9.478;2023-09-30T07:37:33;16.70;24.40
2993;DHT22;1506;48.932;9.478;2023-09-30T07:40:00;16.70;60.40
2993;DHT22;1506;48.932;9.478;2023-09-30T07:42:27;16.90;18.20
2993;DHT22;1506;48.932;9.478;2023-09-30T07:44:54;17.00;22.60
2993;DHT22;1506;48.932;9.478;2023-09-30T07:47:21;17.30;1.00
2993;DHT22;1506;48.932;9.478;2023-09-30T07:49:48;17.30;1.00
2993;DHT22;1506;48.932;9.478;2023-09-30T07:52:15;17.20;1.00
2993;DHT22;1506;48.932;9.478;2023-09-30T07:54:42;17.30;1.00
2993;DHT22;1506;48.932;9.478;2023-09-30T07:57:09;17.70;1.00
2993;DHT22;1506;48.932;9.478;2023-09-30T07:59:36;17.70;1.00
2993;DHT22;1506;48.932;9.478;2023-09-30T08:02:03;18.20;1.00
2993;DHT22;1506;48.932;9.478;2023-09-30T08:04:33;18.60;1.00
2993;DHT22;1506;48.932;9.478;2023-09-30T08:07:00;19.00;29.90
2993;DHT22;1506;48.932;9.478;2023-09-30T08:09:27;19.40;1.00
2993;DHT22;1506;48.932;9.478;2023-09-30T08:11:54;19.40;1.00
2993;DHT22;1506;48.932;9.478;2023-09-30T08:14:22;19.80;1.00
2993;DHT22;1506;48.932;9.478;2023-09-30T08:16:49;20.30;99.90
2993;DHT22;1506;48.932;9.478;2023-09-30T08:19:16;20.60;99.90
2993;DHT22;1506;48.932;9.478;2023-09-30T08:21:43;20.60;99.90
2993;DHT22;1506;48.932;9.478;2023-09-30T08:24:11;20.00;99.90
2993;DHT22;1506;48.932;9.478;2023-09-30T08:26:38;19.70;1.00
2993;DHT22;1506;48.932;9.478;2023-09-30T08:29:05;20.10;99.90
2993;DHT22;1506;48.932;9.478;2023-09-30T08:31:33;20.60;31.70
2993;DHT22;1506;48.932;9.478;2023-09-30T08:34:00;21.20;92.60
2993;DHT22;1506;48.932;9.478;2023-09-30T08:36:30;21.50;99.90
2993;DHT22;1506;48.932;9.478;2023-09-30T08:38:57;21.80;1.00
2993;DHT22;1506;48.932;9.478;2023-09-30T08:41:32;21.90;1.00
2993;DHT22;1506;48.932;9.478;2023-09-30T08:44:00;21.00;1.00
2993;DHT22;1506;48.932;9.478;2023-09-30T08:46:32;20.90;82.80
2993;DHT22;1506;48.932;9.478;2023-09-30T08:49:01;20.70;99.90
2993;DHT22;1506;48.932;9.478;2023-09-30T08:51:30;21.20;99.90
2993;DHT22;1506;48.932;9.478;2023-09-30T08:53:59;21.20;1.00
2993;DHT22;1506;48.932;9.478;2023-09-30T08:56:28;21.40;99.90
2993;DHT22;1506;48.932;9.478;2023-09-30T08:58:56;21.90;1.00
2993;DHT22;1506;48.932;9.478;2023-09-30T09:01:28;22.20;99.90
2993;DHT22;1506;48.932;9.478;2023-09-30T09:03:56;22.30;99.90
2993;DHT22;1506;48.932;9.478;2023-09-30T09:06:24;22.30;99.90
2993;DHT22;1506;48.932;9.478;2023-09-30T09:08:52;22.80;96.70
2993;DHT22;1506;48.932;9.478;2023-09-30T09:11:19;21.80;99.90
2993;DHT22;1506;48.932;9.478;2023-09-30T09:16:16;22.50;99.90
2993;DHT22;1506;48.932;9.478;2023-09-30T09:18:46;22.90;99.90
2993;DHT22;1506;48.932;9.478;2023-09-30T09:21:15;23.60;24.20
2993;DHT22;1506;48.932;9.478;2023-09-30T09:23:48;24.00;1.00
2993;DHT22;1506;48.932;9.478;2023-09-30T09:28:58;24.00;1.00
2993;DHT22;1506;48.932;9.478;2023-09-30T09:31:27;24.00;1.00
2993;DHT22;1506;48.932;9.478;2023-09-30T09:33:55;23.90;1.00
2993;DHT22;1506;48.932;9.478;2023-09-30T09:36:37;24.60;1.00
2993;DHT22;1506;48.932;9.478;2023-09-30T09:39:13;24.40;1.00
2993;DHT22;1506;48.932;9.478;2023-09-30T09:41:53;24.50;1.00
2993;DHT22;1506;48.932;9.478;2023-09-30T09:44:21;23.80;1.00
2993;DHT22;1506;48.932;9.478;2023-09-30T09:46:49;23.60;1.00
2993;DHT22;1506;48.932;9.478;2023-09-30T09:49:17;24.30;1.00
2993;DHT22;1506;48.932;9.478;2023-09-30T09:51:45;25.10;1.00
2993;DHT22;1506;48.932;9.478;2023-09-30T09:54:14;25.80;1.00
2993;DHT22;1506;48.932;9.478;2023-09-30T09:56:42;26.10;1.00
2993;DHT22;1506;48.932;9.478;2023-09-30T09:59:11;26.00;1.00
2993;DHT22;1506;48.932;9.478;2023-09-30T10:01:39;26.00;1.00
2993;DHT22;1506;48.932;9.478;2023-09-30T10:04:08;26.20;1.00
2993;DHT22;1506;48.932;9.478;2023-09-30T10:06:37;26.40;1.00
2993;DHT22;1506;48.932;9.478;2023-09-30T10:09:10;26.40;1.00
2993;DHT22;1506;48.932;9.478;2023-09-30T10:11:40;26.70;1.00
2993;DHT22;1506;48.932;9.478;2023-09-30T10:14:08;27.10;1.00
2993;DHT22;1506;48.932;9.478;2023-09-30T10:21:39;25.30;1.00
2993;DHT22;1506;48.932;9.478;2023-09-30T10:33:18;26.20;1.00
2993;DHT22;1506;48.932;9.478;2023-09-30T10:38:36;26.60;99.90
2993;DHT22;1506;48.932;9.478;2023-09-30T10:40:49;25.80;99.90
2993;DHT22;1506;48.932;9.478;2023-09-30T10:43:36;26.00;99.90
2993;DHT22;1506;48.932;9.478;2023-09-30T10:46:50;26.20;99.90
2993;DHT22;1506;48.932;9.478;2023-09-30T10:48:52;26.40;99.90
2993;DHT22;1506;48.932;9.478;2023-09-30T10:51:20;26.60;99.90
2993;DHT22;1506;48.932;9.478;2023-09-30T10:53:48;26.60;99.90
2993;DHT22;1506;48.932;9.478;2023-09-30T10:56:18;26.40;99.90
2993;DHT22;1506;48.932;9.478;2023-09-30T10:58:47;27.00;99.90
2993;DHT22;1506;48.932;9.478;2023-09-30T11:01:16;27.50;99.90
2993;DHT22;1506;48.932;9.478;2023-09-30T11:03:44;28.00;99.90
2993;DHT22;1506;48.932;9.478;2023-09-30T11:06:13;28.30;99.90
2993;DHT22;1506;48.932;9.478;2023-09-30T11:08:52;28.50;99.90
2993;DHT22;1506;48.932;9.478;2023-09-30T11:14:00;28.50;99.90
2993;DHT22;1506;48.932;9.478;2023-09-30T11:16:28;27.90;99.90
2993;DHT22;1506;48.932;9.478;2023-09-30T11:18:55;27.70;99.90
2993;DHT22;1506;48.932;9.478;2023-09-30T11:21:22;27.10;99.90
2993;DHT22;1506;48.932;9.478;2023-09-30T11:23:49;27.40;99.90
2993;DHT22;1506;48.932;9.478;2023-09-30T11:26:17;28.00;99.90
2993;DHT22;1506;48.932;9.478;2023-09-30T11:29:08;28.60;99.90
2993;DHT22;1506;48.932;9.478;2023-09-30T11:31:38;29.10;99.90
2993;DHT22;1506;48.932;9.478;2023-09-30T11:34:06;29.40;99.90
2993;DHT22;1506;48.932;9.478;2023-09-30T11:36:35;28.70;99.90
2993;DHT22;1506;48.932;9.478;2023-09-30T11:39:03;29.10;99.90
2993;DHT22;1506;48.932;9.478;2023-09-30T11:41:32;29.20;99.90
2993;DHT22;1506;48.932;9.478;2023-09-30T11:44:01;29.10;99.90
2993;DHT22;1506;48.932;9.478;2023-09-30T11:46:46;29.30;99.90
2993;DHT22;1506;48.932;9.478;2023-09-30T11:51:51;28.80;99.90
2993;DHT22;1506;48.932;9.478;2023-09-30T11:54:19;28.70;99.90
2993;DHT22;1506;48.932;9.478;2023-09-30T11:56:46;29.10;99.90
2993;DHT22;1506;48.932;9.478;2023-09-30T11:59:14;29.00;99.90
2993;DHT22;1506;48.932;9.478;2023-09-30T12:01:41;28.70;99.90
2993;DHT22;1506;48.932;9.478;2023-09-30T12:04:08;28.90;99.90
2993;DHT22;1506;48.932;9.478;2023-09-30T12:06:36;29.10;99.90
2993;DHT22;1506;48.932;9.478;2023-09-30T12:09:04;29.20;99.90
2993;DHT22;1506;48.932;9.478;2023-09-30T12:11:32;29.20;99.90
2993;DHT22;1506;48.932;9.478;2023-09-30T12:13:59;29.50;99.90
2993;DHT22;1506;48.932;9.478;2023-09-30T12:16:27;29.20;99.90
2993;DHT22;1506;48.932;9.478;2023-09-30T12:18:54;29.40;99.90
2993;DHT22;1506;48.932;9.478;2023-09-30T12:21:21;29.70;99.90
2993;DHT22;1506;48.932;9.478;2023-09-30T12:23:49;29.70;99.90
2993;DHT22;1506;48.932;9.478;2023-09-30T12:26:19;29.50;99.90
2993;DHT22;1506;48.932;9.478;2023-09-30T12:28:46;29.30;99.90
2993;DHT22;1506;48.932;9.478;2023-09-30T12:31:14;29.20;99.90
2993;DHT22;1506;48.932;9.478;2023-09-30T12:33:42;29.50;99.90
2993;DHT22;1506;48.932;9.478;2023-09-30T12:36:09;29.60;99.90
2993;DHT22;1506;48.932;9.478;2023-09-30T12:38:39;29.30;99.90
2993;DHT22;1506;48.932;9.478;2023-09-30T12:41:06;29.50;99.90
2993;DHT22;1506;48.932;9.478;2023-09-30T12:43:33;28.90;99.90
2993;DHT22;1506;48.932;9.478;2023-09-30T12:46:00;28.80;99.90
2993;DHT22;1506;48.932;9.478;2023-09-30T12:48:27;28.60;99.90
2993;DHT22;1506;48.932;9.478;2023-09-30T12:50:54;28.80;99.90
2993;DHT22;1506;48.932;9.478;2023-09-30T12:53:21;28.90;99.90
2993;DHT22;1506;48.932;9.478;2023-09-30T12:55:48;29.20;99.90
2993;DHT22;1506;48.932;9.478;2023-09-30T12:58:15;29.20;99.90
2993;DHT22;1506;48.932;9.478;2023-09-30T13:00:42;29.00;99.90
2993;DHT22;1506;48.932;9.478;2023-09-30T13:03:09;29.00;99.90
2993;DHT22;1506;48.932;9.478;2023-09-30T13:05:36;29.20;99.90
2993;DHT22;1506;48.932;9.478;2023-09-30T13:08:03;29.00;99.90
2993;DHT22;1506;48.932;9.478;2023-09-30T13:10:30;28.50;99.90
2993;DHT22;1506;48.932;9.478;2023-09-30T13:12:57;28.40;99.90
2993;DHT22;1506;48.932;9.478;2023-09-30T13:15:24;27.80;99.90
2993;DHT22;1506;48.932;9.478;2023-09-30T13:17:53;27.80;99.90
2993;DHT22;1506;48.932;9.478;2023-09-30T13:20:20;27.80;99.90
2993;DHT22;1506;48.932;9.478;2023-09-30T13:22:47;27.50;99.90
2993;DHT22;1506;48.932;9.478;2023-09-30T13:25:14;27.80;99.90
2993;DHT22;1506;48.932;9.478;2023-09-30T13:27:42;27.90;99.90
2993;DHT22;1506;48.932;9.478;2023-09-30T13:30:10;28.00;99.90
2993;DHT22;1506;48.932;9.478;2023-09-30T13:32:37;27.90;99.90
2993;DHT22;1506;48.932;9.478;2023-09-30T13:35:04;27.70;99.90
2993;DHT22;1506;48.932;9.478;2023-09-30T13:37:32;27.50;99.90
2993;DHT22;1506;48.932;9.478;2023-09-30T13:40:00;27.00;99.90
2993;DHT22;1506;48.932;9.478;2023-09-30T13:42:28;26.60;99.90
2993;DHT22;1506;48.932;9.478;2023-09-30T13:44:56;25.90;99.90
2993;DHT22;1506;48.932;9.478;2023-09-30T13:47:26;25.60;99.90
2993;DHT22;1506;48.932;9.478;2023-09-30T13:49:53;25.40;99.90
2993;DHT22;1506;48.932;9.478;2023-09-30T13:52:21;25.20;99.90
2993;DHT22;1506;48.932;9.478;2023-09-30T13:54:48;25.20;99.90
2993;DHT22;1506;48.932;9.478;2023-09-30T13:57:15;25.00;99.90
2993;DHT22;1506;48.932;9.478;2023-09-30T13:59:42;24.90;99.90
2993;DHT22;1506;48.932;9.478;2023-09-30T14:02:09;24.90;99.90
2993;DHT22;1506;48.932;9.478;2023-09-30T14:04:36;24.80;99.90
2993;DHT22;1506;48.932;9.478;2023-09-30T14:07:03;24.80;99.90
2993;DHT22;1506;48.932;9.478;2023-09-30T14:09:32;24.70;99.90
2993;DHT22;1506;48.932;9.478;2023-09-30T14:12:02;24.50;99.90
2993;DHT22;1506;48.932;9.478;2023-09-30T14:14:34;24.40;99.90
2993;DHT22;1506;48.932;9.478;2023-09-30T14:17:02;24.20;99.90
2993;DHT22;1506;48.932;9.478;2023-09-30T14:19:37;24.00;99.90
2993;DHT22;1506;48.932;9.478;2023-09-30T14:22:05;23.90;99.90
2993;DHT22;1506;48.932;9.478;2023-09-30T14:24:32;23.90;99.90
2993;DHT22;1506;48.932;9.478;2023-09-30T14:27:08;23.90;99.90
2993;DHT22;1506;48.932;9.478;2023-09-30T14:29:35;24.00;99.90
2993;DHT22;1506;48.932;9.478;2023-09-30T14:32:02;24.00;99.90
2993;DHT22;1506;48.932;9.478;2023-09-30T14:34:29;23.80;99.90
2993;DHT22;1506;48.932;9.478;2023-09-30T14:36:56;23.60;99.90
2993;DHT22;1506;48.932;9.478;2023-09-30T14:39:23;23.60;99.90
2993;DHT22;1506;48.932;9.478;2023-09-30T14:41:50;23.60;99.90
2993;DHT22;1506;48.932;9.478;2023-09-30T14:44:17;23.60;99.90
2993;DHT22;1506;48.932;9.478;2023-09-30T14:46:44;23.50;99.90
2993;DHT22;1506;48.932;9.478;2023-09-30T14:49:12;23.30;99.90
2993;DHT22;1506;48.932;9.478;2023-09-30T14:51:39;23.20;99.90
2993;DHT22;1506;48.932;9.478;2023-09-30T14:54:06;23.10;99.90
2993;DHT22;1506;48.932;9.478;2023-09-30T14:56:33;23.10;99.90
2993;DHT22;1506;48.932;9.478;2023-09-30T14:58:59;23.10;99.90
2993;DHT22;1506;48.932;9.478;2023-09-30T15:01:27;23.00;99.90
2993;DHT22;1506;48.932;9.478;2023-09-30T15:03:54;23.00;99.90
2993;DHT22;1506;48.932;9.478;2023-09-30T15:06:21;23.00;99.90
2993;DHT22;1506;48.932;9.478;2023-09-30T15:08:51;22.90;99.90
2993;DHT22;1506;48.932;9.478;2023-09-30T15:11:18;22.90;99.90
2993;DHT22;1506;48.932;9.478;2023-09-30T15:13:45;22.80;99.90
2993;DHT22;1506;48.932;9.478;2023-09-30T15:16:16;22.60;99.90
2993;DHT22;1506;48.932;9.478;2023-09-30T15:18:45;22.50;99.90
2993;DHT22;1506;48.932;9.478;2023-09-30T15:21:14;22.40;99.90
2993;DHT22;1506;48.932;9.478;2023-09-30T15:26:09;21.70;99.90
2993;DHT22;1506;48.932;9.478;2023-09-30T15:28:37;21.50;99.90
2993;DHT22;1506;48.932;9.478;2023-09-30T15:31:04;21.40;99.90
2993;DHT22;1506;48.932;9.478;2023-09-30T15:33:33;21.40;99.90
2993;DHT22;1506;48.932;9.478;2023-09-30T15:36:10;21.60;99.90
2993;DHT22;1506;48.932;9.478;2023-09-30T15:38:38;21.60;99.90
2993;DHT22;1506;48.932;9.478;2023-09-30T15:41:06;21.60;99.90
2993;DHT22;1506;48.932;9.478;2023-09-30T15:43:33;21.60;99.90
2993;DHT22;1506;48.932;9.478;2023-09-30T15:46:02;21.50;99.90
2993;DHT22;1506;48.932;9.478;2023-09-30T15:48:30;21.50;99.90
2993;DHT22;1506;48.932;9.478;2023-09-30T15:50:57;21.50;99.90
2993;DHT22;1506;48.932;9.478;2023-09-30T15:53:24;21.40;99.90
2993;DHT22;1506;48.932;9.478;2023-09-30T15:55:51;21.30;99.90
2993;DHT22;1506;48.932;9.478;2023-09-30T15:58:19;21.30;99.90
2993;DHT22;1506;48.932;9.478;2023-09-30T16:00:46;21.20;99.90
2993;DHT22;1506;48.932;9.478;2023-09-30T16:03:15;21.20;99.90
2993;DHT22;1506;48.932;9.478;2023-09-30T16:05:42;21.10;99.90
2993;DHT22;1506;48.932;9.478;2023-09-30T16:08:09;21.10;99.90
2993;DHT22;1506;48.932;9.478;2023-09-30T16:10:37;21.00;99.90
2993;DHT22;1506;48.932;9.478;2023-09-30T16:13:05;20.90;99.90
2993;DHT22;1506;48.932;9.478;2023-09-30T16:15:39;20.90;99.90
2993;DHT22;1506;48.932;9.478;2023-09-30T16:18:08;20.80;99.90
2993;DHT22;1506;48.932;9.478;2023-09-30T16:20:35;20.70;99.90
2993;DHT22;1506;48.932;9.478;2023-09-30T16:23:03;20.70;99.90
2993;DHT22;1506;48.932;9.478;2023-09-30T16:25:30;20.60;99.90
2993;DHT22;1506;48.932;9.478;2023-09-30T16:27:57;20.50;99.90
2993;DHT22;1506;48.932;9.478;2023-09-30T16:30:27;20.40;99.90
2993;DHT22;1506;48.932;9.478;2023-09-30T16:32:56;20.20;1.00
2993;DHT22;1506;48.932;9.478;2023-09-30T16:35:24;20.10;1.00
2993;DHT22;1506;48.932;9.478;2023-09-30T16:37:51;20.00;1.00
2993;DHT22;1506;48.932;9.478;2023-09-30T16:40:18;19.90;1.00